TAF and METAR

METAR for Franceville/Mvengue Airport

FOON 311100Z VRB02KT 9999 BKN010 OVC016 26/23 Q1013
Report created 31. mai 13:00
wind 2 knots from various directions visibility > 10km broken clouds (~75% cover) at 1000 feet overcast at 1600 feet Temperature 26° with dewpoint at 23° (Humidity 83.60%) Pressure 1013 hPa
No TAF available for Franceville/Mvengue Airport
Franceville/Mvengue Airport in Gabon at 441m

Latest 5 airports